sensor_id;sensor_type;location;lat;lon;timestamp;P1;durP1;ratioP1;P2;durP2;ratioP2
5279;SDS011;2663;53.588;10.010;2023-04-01T00:01:23;10.27;;;5.00;;
5279;SDS011;2663;53.588;10.010;2023-04-01T00:03:49;10.67;;;5.47;;
5279;SDS011;2663;53.588;10.010;2023-04-01T00:06:17;8.83;;;5.10;;
5279;SDS011;2663;53.588;10.010;2023-04-01T00:08:44;7.67;;;5.40;;
5279;SDS011;2663;53.588;10.010;2023-04-01T00:11:12;10.80;;;4.70;;
5279;SDS011;2663;53.588;10.010;2023-04-01T00:13:39;13.70;;;5.37;;
5279;SDS011;2663;53.588;10.010;2023-04-01T00:16:06;10.13;;;6.10;;
5279;SDS011;2663;53.588;10.010;2023-04-01T00:18:45;10.30;;;5.13;;
5279;SDS011;2663;53.588;10.010;2023-04-01T00:21:15;7.47;;;5.43;;
5279;SDS011;2663;53.588;10.010;2023-04-01T00:23:42;14.33;;;5.63;;
5279;SDS011;2663;53.588;10.010;2023-04-01T00:26:10;19.80;;;5.13;;
5279;SDS011;2663;53.588;10.010;2023-04-01T00:28:38;5.67;;;4.70;;
5279;SDS011;2663;53.588;10.010;2023-04-01T00:31:06;7.20;;;5.20;;
5279;SDS011;2663;53.588;10.010;2023-04-01T00:33:34;11.97;;;6.10;;
5279;SDS011;2663;53.588;10.010;2023-04-01T00:38:38;11.43;;;5.00;;
5279;SDS011;2663;53.588;10.010;2023-04-01T00:41:06;7.67;;;5.23;;
5279;SDS011;2663;53.588;10.010;2023-04-01T00:43:33;11.27;;;5.03;;
5279;SDS011;2663;53.588;10.010;2023-04-01T00:46:00;16.03;;;5.50;;
5279;SDS011;2663;53.588;10.010;2023-04-01T00:48:29;16.53;;;4.97;;
5279;SDS011;2663;53.588;10.010;2023-04-01T00:51:00;8.93;;;4.67;;
5279;SDS011;2663;53.588;10.010;2023-04-01T00:53:30;9.67;;;4.80;;
5279;SDS011;2663;53.588;10.010;2023-04-01T00:56:00;15.63;;;4.90;;
5279;SDS011;2663;53.588;10.010;2023-04-01T00:58:29;11.37;;;4.90;;
5279;SDS011;2663;53.588;10.010;2023-04-01T01:00:59;8.67;;;5.67;;
5279;SDS011;2663;53.588;10.010;2023-04-01T01:03:27;13.07;;;5.67;;
5279;SDS011;2663;53.588;10.010;2023-04-01T01:11:35;14.23;;;4.50;;
5279;SDS011;2663;53.588;10.010;2023-04-01T01:17:02;7.23;;;5.20;;
5279;SDS011;2663;53.588;10.010;2023-04-01T01:20:04;6.80;;;5.30;;
5279;SDS011;2663;53.588;10.010;2023-04-01T01:22:56;6.63;;;4.20;;
5279;SDS011;2663;53.588;10.010;2023-04-01T01:30:57;5.73;;;4.30;;
5279;SDS011;2663;53.588;10.010;2023-04-01T01:36:06;9.87;;;5.57;;
5279;SDS011;2663;53.588;10.010;2023-04-01T01:38:38;15.50;;;4.50;;
5279;SDS011;2663;53.588;10.010;2023-04-01T01:41:06;12.67;;;4.80;;
5279;SDS011;2663;53.588;10.010;2023-04-01T01:43:41;11.37;;;5.40;;
5279;SDS011;2663;53.588;10.010;2023-04-01T01:46:13;10.57;;;5.07;;
5279;SDS011;2663;53.588;10.010;2023-04-01T01:48:43;16.20;;;6.53;;
5279;SDS011;2663;53.588;10.010;2023-04-01T01:51:11;9.47;;;4.53;;
5279;SDS011;2663;53.588;10.010;2023-04-01T01:53:38;36.37;;;18.17;;
5279;SDS011;2663;53.588;10.010;2023-04-01T01:56:05;9.20;;;6.13;;
5279;SDS011;2663;53.588;10.010;2023-04-01T01:58:51;14.03;;;6.93;;
5279;SDS011;2663;53.588;10.010;2023-04-01T02:01:24;14.10;;;5.47;;
5279;SDS011;2663;53.588;10.010;2023-04-01T02:03:54;12.73;;;5.17;;
5279;SDS011;2663;53.588;10.010;2023-04-01T02:06:23;9.03;;;5.30;;
5279;SDS011;2663;53.588;10.010;2023-04-01T02:08:55;7.60;;;4.33;;
5279;SDS011;2663;53.588;10.010;2023-04-01T02:11:28;10.90;;;4.80;;
5279;SDS011;2663;53.588;10.010;2023-04-01T02:16:40;8.90;;;5.40;;
5279;SDS011;2663;53.588;10.010;2023-04-01T02:19:09;11.83;;;4.83;;
5279;SDS011;2663;53.588;10.010;2023-04-01T02:21:38;9.87;;;4.63;;
5279;SDS011;2663;53.588;10.010;2023-04-01T02:24:08;12.70;;;4.47;;
5279;SDS011;2663;53.588;10.010;2023-04-01T02:26:38;6.07;;;4.67;;
5279;SDS011;2663;53.588;10.010;2023-04-01T02:29:06;4.83;;;4.30;;
5279;SDS011;2663;53.588;10.010;2023-04-01T02:31:33;11.23;;;5.70;;
5279;SDS011;2663;53.588;10.010;2023-04-01T02:34:01;10.30;;;4.80;;
5279;SDS011;2663;53.588;10.010;2023-04-01T02:36:29;5.00;;;3.97;;
5279;SDS011;2663;53.588;10.010;2023-04-01T02:38:56;10.70;;;4.90;;
5279;SDS011;2663;53.588;10.010;2023-04-01T02:41:28;7.13;;;4.20;;
5279;SDS011;2663;53.588;10.010;2023-04-01T02:43:55;8.73;;;4.50;;
5279;SDS011;2663;53.588;10.010;2023-04-01T02:46:23;10.87;;;5.13;;
5279;SDS011;2663;53.588;10.010;2023-04-01T02:48:50;7.70;;;3.87;;
5279;SDS011;2663;53.588;10.010;2023-04-01T02:51:17;8.40;;;5.13;;
5279;SDS011;2663;53.588;10.010;2023-04-01T02:53:44;8.70;;;5.47;;
5279;SDS011;2663;53.588;10.010;2023-04-01T02:56:10;7.87;;;4.43;;
5279;SDS011;2663;53.588;10.010;2023-04-01T02:58:37;17.60;;;6.30;;
5279;SDS011;2663;53.588;10.010;2023-04-01T03:01:04;7.47;;;5.03;;
5279;SDS011;2663;53.588;10.010;2023-04-01T03:03:30;11.20;;;5.27;;
5279;SDS011;2663;53.588;10.010;2023-04-01T03:05:57;8.53;;;5.40;;
5279;SDS011;2663;53.588;10.010;2023-04-01T03:08:26;10.90;;;5.07;;
5279;SDS011;2663;53.588;10.010;2023-04-01T03:10:52;8.93;;;4.70;;
5279;SDS011;2663;53.588;10.010;2023-04-01T03:13:19;10.73;;;4.70;;
5279;SDS011;2663;53.588;10.010;2023-04-01T03:15:47;7.00;;;4.90;;
5279;SDS011;2663;53.588;10.010;2023-04-01T03:18:14;10.33;;;5.90;;
5279;SDS011;2663;53.588;10.010;2023-04-01T03:20:40;14.10;;;6.07;;
5279;SDS011;2663;53.588;10.010;2023-04-01T03:23:08;9.60;;;6.67;;
5279;SDS011;2663;53.588;10.010;2023-04-01T03:25:35;9.33;;;5.73;;
5279;SDS011;2663;53.588;10.010;2023-04-01T03:28:02;7.63;;;4.80;;
5279;SDS011;2663;53.588;10.010;2023-04-01T03:30:28;14.43;;;6.63;;
5279;SDS011;2663;53.588;10.010;2023-04-01T03:32:58;11.20;;;5.90;;
5279;SDS011;2663;53.588;10.010;2023-04-01T03:35:26;10.53;;;5.90;;
5279;SDS011;2663;53.588;10.010;2023-04-01T03:37:53;11.77;;;6.20;;
5279;SDS011;2663;53.588;10.010;2023-04-01T03:40:20;20.07;;;6.97;;
5279;SDS011;2663;53.588;10.010;2023-04-01T03:42:48;9.07;;;5.83;;
5279;SDS011;2663;53.588;10.010;2023-04-01T03:45:15;9.40;;;6.50;;
5279;SDS011;2663;53.588;10.010;2023-04-01T03:47:41;11.33;;;5.73;;
5279;SDS011;2663;53.588;10.010;2023-04-01T03:50:08;17.30;;;6.97;;
5279;SDS011;2663;53.588;10.010;2023-04-01T03:52:36;11.10;;;6.67;;
5279;SDS011;2663;53.588;10.010;2023-04-01T03:55:02;10.87;;;6.17;;
5279;SDS011;2663;53.588;10.010;2023-04-01T03:57:32;14.50;;;6.60;;
5279;SDS011;2663;53.588;10.010;2023-04-01T03:59:59;8.90;;;5.73;;
5279;SDS011;2663;53.588;10.010;2023-04-01T04:02:26;15.40;;;6.53;;
5279;SDS011;2663;53.588;10.010;2023-04-01T04:04:52;8.83;;;6.30;;
5279;SDS011;2663;53.588;10.010;2023-04-01T04:07:19;10.57;;;5.53;;
5279;SDS011;2663;53.588;10.010;2023-04-01T04:09:46;9.90;;;6.47;;
5279;SDS011;2663;53.588;10.010;2023-04-01T04:12:13;8.20;;;5.90;;
5279;SDS011;2663;53.588;10.010;2023-04-01T04:14:40;22.60;;;8.50;;
5279;SDS011;2663;53.588;10.010;2023-04-01T04:17:06;10.50;;;6.30;;
5279;SDS011;2663;53.588;10.010;2023-04-01T04:19:39;7.20;;;5.90;;
5279;SDS011;2663;53.588;10.010;2023-04-01T04:22:06;10.43;;;6.40;;
5279;SDS011;2663;53.588;10.010;2023-04-01T04:24:33;9.47;;;6.47;;
5279;SDS011;2663;53.588;10.010;2023-04-01T04:27:01;14.93;;;6.33;;
5279;SDS011;2663;53.588;10.010;2023-04-01T04:29:28;10.33;;;6.57;;
5279;SDS011;2663;53.588;10.010;2023-04-01T04:31:56;12.27;;;5.43;;
5279;SDS011;2663;53.588;10.010;2023-04-01T04:34:22;8.30;;;5.53;;
5279;SDS011;2663;53.588;10.010;2023-04-01T04:36:49;13.00;;;7.13;;
5279;SDS011;2663;53.588;10.010;2023-04-01T04:39:16;18.80;;;7.27;;
5279;SDS011;2663;53.588;10.010;2023-04-01T04:41:43;11.90;;;6.60;;
5279;SDS011;2663;53.588;10.010;2023-04-01T04:44:10;11.47;;;6.97;;
5279;SDS011;2663;53.588;10.010;2023-04-01T04:46:37;10.90;;;6.93;;
5279;SDS011;2663;53.588;10.010;2023-04-01T04:49:05;9.00;;;6.77;;
5279;SDS011;2663;53.588;10.010;2023-04-01T04:51:32;10.10;;;6.80;;
5279;SDS011;2663;53.588;10.010;2023-04-01T04:54:02;10.53;;;7.60;;
5279;SDS011;2663;53.588;10.010;2023-04-01T04:56:29;9.40;;;6.60;;
5279;SDS011;2663;53.588;10.010;2023-04-01T04:58:57;11.13;;;8.00;;
5279;SDS011;2663;53.588;10.010;2023-04-01T05:01:24;14.47;;;7.43;;
5279;SDS011;2663;53.588;10.010;2023-04-01T05:03:51;14.90;;;7.63;;
5279;SDS011;2663;53.588;10.010;2023-04-01T05:06:20;11.67;;;7.07;;
5279;SDS011;2663;53.588;10.010;2023-04-01T05:08:48;11.13;;;6.87;;
5279;SDS011;2663;53.588;10.010;2023-04-01T05:11:18;10.27;;;7.27;;
5279;SDS011;2663;53.588;10.010;2023-04-01T05:13:47;9.17;;;6.53;;
5279;SDS011;2663;53.588;10.010;2023-04-01T05:16:14;14.80;;;7.13;;
5279;SDS011;2663;53.588;10.010;2023-04-01T05:18:43;10.40;;;7.50;;
5279;SDS011;2663;53.588;10.010;2023-04-01T05:21:12;7.70;;;6.80;;
5279;SDS011;2663;53.588;10.010;2023-04-01T05:23:40;3.57;;;3.23;;
5279;SDS011;2663;53.588;10.010;2023-04-01T05:26:09;1.80;;;1.70;;
5279;SDS011;2663;53.588;10.010;2023-04-01T05:28:37;2.60;;;1.10;;
5279;SDS011;2663;53.588;10.010;2023-04-01T05:31:05;1.23;;;1.13;;
5279;SDS011;2663;53.588;10.010;2023-04-01T05:33:32;1.90;;;1.00;;
5279;SDS011;2663;53.588;10.010;2023-04-01T05:36:09;0.90;;;0.90;;
5279;SDS011;2663;53.588;10.010;2023-04-01T05:38:38;1.07;;;1.07;;
5279;SDS011;2663;53.588;10.010;2023-04-01T05:41:05;1.00;;;1.00;;
5279;SDS011;2663;53.588;10.010;2023-04-01T05:43:32;1.10;;;1.10;;
5279;SDS011;2663;53.588;10.010;2023-04-01T05:46:02;0.90;;;0.90;;
5279;SDS011;2663;53.588;10.010;2023-04-01T05:48:28;0.90;;;0.90;;
5279;SDS011;2663;53.588;10.010;2023-04-01T05:50:55;1.00;;;1.00;;
5279;SDS011;2663;53.588;10.010;2023-04-01T05:53:22;0.90;;;0.90;;
5279;SDS011;2663;53.588;10.010;2023-04-01T05:55:48;1.40;;;1.30;;
5279;SDS011;2663;53.588;10.010;2023-04-01T05:58:15;1.10;;;1.00;;
5279;SDS011;2663;53.588;10.010;2023-04-01T06:00:42;0.97;;;0.97;;
5279;SDS011;2663;53.588;10.010;2023-04-01T06:03:08;0.93;;;0.93;;
5279;SDS011;2663;53.588;10.010;2023-04-01T06:05:39;1.60;;;1.40;;
5279;SDS011;2663;53.588;10.010;2023-04-01T06:08:15;1.03;;;1.03;;
5279;SDS011;2663;53.588;10.010;2023-04-01T06:16:25;1.40;;;1.30;;
5279;SDS011;2663;53.588;10.010;2023-04-01T06:19:04;1.13;;;1.10;;
5279;SDS011;2663;53.588;10.010;2023-04-01T06:27:40;1.50;;;1.40;;
5279;SDS011;2663;53.588;10.010;2023-04-01T06:33:28;0.90;;;0.90;;
5279;SDS011;2663;53.588;10.010;2023-04-01T06:36:16;2.27;;;1.43;;
5279;SDS011;2663;53.588;10.010;2023-04-01T06:39:39;1.00;;;1.00;;
5279;SDS011;2663;53.588;10.010;2023-04-01T06:41:54;0.83;;;0.83;;
5279;SDS011;2663;53.588;10.010;2023-04-01T06:47:20;1.00;;;0.90;;
5279;SDS011;2663;53.588;10.010;2023-04-01T06:50:05;0.70;;;0.70;;
5279;SDS011;2663;53.588;10.010;2023-04-01T06:56:00;1.07;;;0.97;;
5279;SDS011;2663;53.588;10.010;2023-04-01T06:58:40;1.17;;;1.07;;
5279;SDS011;2663;53.588;10.010;2023-04-01T07:01:14;0.90;;;0.90;;
5279;SDS011;2663;53.588;10.010;2023-04-01T07:03:50;1.00;;;1.00;;
5279;SDS011;2663;53.588;10.010;2023-04-01T07:06:28;1.43;;;0.80;;
5279;SDS011;2663;53.588;10.010;2023-04-01T07:08:59;1.60;;;0.73;;
5279;SDS011;2663;53.588;10.010;2023-04-01T07:11:32;0.67;;;0.67;;
5279;SDS011;2663;53.588;10.010;2023-04-01T07:16:49;0.60;;;0.60;;
5279;SDS011;2663;53.588;10.010;2023-04-01T07:19:31;2.47;;;1.00;;
5279;SDS011;2663;53.588;10.010;2023-04-01T07:25:02;1.03;;;0.77;;
5279;SDS011;2663;53.588;10.010;2023-04-01T07:27:37;0.83;;;0.80;;
5279;SDS011;2663;53.588;10.010;2023-04-01T07:30:06;0.70;;;0.70;;
5279;SDS011;2663;53.588;10.010;2023-04-01T07:35:50;1.10;;;1.00;;
5279;SDS011;2663;53.588;10.010;2023-04-01T07:41:15;0.80;;;0.70;;
5279;SDS011;2663;53.588;10.010;2023-04-01T07:44:01;0.70;;;0.70;;
5279;SDS011;2663;53.588;10.010;2023-04-01T07:46:52;1.27;;;0.87;;
5279;SDS011;2663;53.588;10.010;2023-04-01T07:49:34;7.00;;;0.73;;
5279;SDS011;2663;53.588;10.010;2023-04-01T07:55:02;0.67;;;0.67;;
5279;SDS011;2663;53.588;10.010;2023-04-01T07:58:14;0.60;;;0.50;;
5279;SDS011;2663;53.588;10.010;2023-04-01T08:01:01;0.60;;;0.60;;
5279;SDS011;2663;53.588;10.010;2023-04-01T08:03:48;1.57;;;0.80;;
5279;SDS011;2663;53.588;10.010;2023-04-01T08:06:36;0.70;;;0.60;;
5279;SDS011;2663;53.588;10.010;2023-04-01T08:09:22;5.47;;;1.87;;
5279;SDS011;2663;53.588;10.010;2023-04-01T08:12:12;0.83;;;0.83;;
5279;SDS011;2663;53.588;10.010;2023-04-01T08:15:01;0.40;;;0.40;;
5279;SDS011;2663;53.588;10.010;2023-04-01T08:18:05;1.23;;;0.60;;
5279;SDS011;2663;53.588;10.010;2023-04-01T08:23:21;0.70;;;0.70;;
5279;SDS011;2663;53.588;10.010;2023-04-01T08:25:56;2.07;;;0.80;;
5279;SDS011;2663;53.588;10.010;2023-04-01T08:28:36;0.80;;;0.80;;
5279;SDS011;2663;53.588;10.010;2023-04-01T08:31:16;0.70;;;0.60;;
5279;SDS011;2663;53.588;10.010;2023-04-01T08:33:58;0.80;;;0.80;;
5279;SDS011;2663;53.588;10.010;2023-04-01T08:36:30;0.63;;;0.60;;
5279;SDS011;2663;53.588;10.010;2023-04-01T08:39:12;0.80;;;0.77;;
5279;SDS011;2663;53.588;10.010;2023-04-01T08:47:52;0.57;;;0.57;;
5279;SDS011;2663;53.588;10.010;2023-04-01T09:16:19;1.90;;;0.70;;
5279;SDS011;2663;53.588;10.010;2023-04-01T09:22:03;0.73;;;0.73;;
5279;SDS011;2663;53.588;10.010;2023-04-01T09:30:31;0.80;;;0.80;;
5279;SDS011;2663;53.588;10.010;2023-04-01T09:33:34;0.53;;;0.50;;
5279;SDS011;2663;53.588;10.010;2023-04-01T09:36:21;0.80;;;0.67;;
5279;SDS011;2663;53.588;10.010;2023-04-01T09:39:17;0.60;;;0.60;;
5279;SDS011;2663;53.588;10.010;2023-04-01T09:53:07;1.17;;;0.90;;
5279;SDS011;2663;53.588;10.010;2023-04-01T09:55:56;0.80;;;0.80;;
5279;SDS011;2663;53.588;10.010;2023-04-01T10:01:36;0.80;;;0.80;;
5279;SDS011;2663;53.588;10.010;2023-04-01T10:15:44;1.23;;;0.70;;
5279;SDS011;2663;53.588;10.010;2023-04-01T10:24:18;0.50;;;0.50;;
5279;SDS011;2663;53.588;10.010;2023-04-01T10:30:05;0.97;;;0.67;;
5279;SDS011;2663;53.588;10.010;2023-04-01T10:33:10;1.97;;;0.50;;
5279;SDS011;2663;53.588;10.010;2023-04-01T10:38:42;0.70;;;0.60;;
5279;SDS011;2663;53.588;10.010;2023-04-01T10:53:32;0.50;;;0.50;;
5279;SDS011;2663;53.588;10.010;2023-04-01T11:05:01;0.60;;;0.60;;
5279;SDS011;2663;53.588;10.010;2023-04-01T11:14:02;0.77;;;0.77;;
5279;SDS011;2663;53.588;10.010;2023-04-01T11:28:51;0.70;;;0.60;;
5279;SDS011;2663;53.588;10.010;2023-04-01T11:31:34;1.07;;;0.93;;
5279;SDS011;2663;53.588;10.010;2023-04-01T11:34:35;2.50;;;1.20;;
5279;SDS011;2663;53.588;10.010;2023-04-01T11:40:02;3.40;;;1.37;;
5279;SDS011;2663;53.588;10.010;2023-04-01T11:43:01;1.60;;;1.23;;
5279;SDS011;2663;53.588;10.010;2023-04-01T11:45:47;1.60;;;1.50;;
5279;SDS011;2663;53.588;10.010;2023-04-01T12:04:48;2.00;;;1.80;;
5279;SDS011;2663;53.588;10.010;2023-04-01T12:10:52;4.27;;;2.20;;
5279;SDS011;2663;53.588;10.010;2023-04-01T12:19:20;2.63;;;2.20;;
5279;SDS011;2663;53.588;10.010;2023-04-01T12:22:09;3.10;;;2.60;;
5279;SDS011;2663;53.588;10.010;2023-04-01T12:25:03;3.87;;;2.87;;
5279;SDS011;2663;53.588;10.010;2023-04-01T12:28:06;3.40;;;2.40;;
5279;SDS011;2663;53.588;10.010;2023-04-01T12:36:10;3.10;;;2.80;;
5279;SDS011;2663;53.588;10.010;2023-04-01T12:50:50;4.57;;;2.90;;
5279;SDS011;2663;53.588;10.010;2023-04-01T13:05:20;4.40;;;2.77;;
5279;SDS011;2663;53.588;10.010;2023-04-01T13:08:01;2.70;;;2.33;;
5279;SDS011;2663;53.588;10.010;2023-04-01T13:10:39;9.10;;;3.13;;
5279;SDS011;2663;53.588;10.010;2023-04-01T13:13:23;3.63;;;2.30;;
5279;SDS011;2663;53.588;10.010;2023-04-01T13:16:14;6.57;;;3.80;;
5279;SDS011;2663;53.588;10.010;2023-04-01T13:19:13;3.93;;;2.00;;
5279;SDS011;2663;53.588;10.010;2023-04-01T13:22:04;3.17;;;2.33;;
5279;SDS011;2663;53.588;10.010;2023-04-01T13:24:40;2.10;;;1.90;;
5279;SDS011;2663;53.588;10.010;2023-04-01T13:27:29;2.13;;;1.83;;
5279;SDS011;2663;53.588;10.010;2023-04-01T13:35:59;2.60;;;1.70;;
5279;SDS011;2663;53.588;10.010;2023-04-01T13:47:06;4.07;;;2.17;;
5279;SDS011;2663;53.588;10.010;2023-04-01T13:52:30;6.27;;;2.67;;
5279;SDS011;2663;53.588;10.010;2023-04-01T14:12:42;2.50;;;2.20;;
5279;SDS011;2663;53.588;10.010;2023-04-01T14:15:34;5.57;;;2.60;;
5279;SDS011;2663;53.588;10.010;2023-04-01T14:20:39;3.50;;;2.60;;
5279;SDS011;2663;53.588;10.010;2023-04-01T14:26:15;3.90;;;2.93;;
5279;SDS011;2663;53.588;10.010;2023-04-01T14:29:18;3.60;;;3.10;;
5279;SDS011;2663;53.588;10.010;2023-04-01T14:31:58;8.40;;;2.60;;
5279;SDS011;2663;53.588;10.010;2023-04-01T14:34:38;8.67;;;4.00;;
5279;SDS011;2663;53.588;10.010;2023-04-01T14:37:31;4.60;;;3.30;;
5279;SDS011;2663;53.588;10.010;2023-04-01T14:46:10;3.50;;;3.00;;
5279;SDS011;2663;53.588;10.010;2023-04-01T14:48:57;7.07;;;3.27;;
5279;SDS011;2663;53.588;10.010;2023-04-01T14:51:39;2.80;;;2.20;;
5279;SDS011;2663;53.588;10.010;2023-04-01T14:59:48;13.23;;;2.93;;
5279;SDS011;2663;53.588;10.010;2023-04-01T15:05:27;5.40;;;3.10;;
5279;SDS011;2663;53.588;10.010;2023-04-01T15:23:12;7.10;;;3.50;;
5279;SDS011;2663;53.588;10.010;2023-04-01T15:32:16;7.40;;;4.00;;
5279;SDS011;2663;53.588;10.010;2023-04-01T15:37:55;6.23;;;3.10;;
5279;SDS011;2663;53.588;10.010;2023-04-01T15:45:54;12.03;;;4.43;;
5279;SDS011;2663;53.588;10.010;2023-04-01T15:48:38;7.57;;;4.40;;
5279;SDS011;2663;53.588;10.010;2023-04-01T15:54:20;8.43;;;4.83;;
5279;SDS011;2663;53.588;10.010;2023-04-01T16:00:00;8.50;;;4.47;;
5279;SDS011;2663;53.588;10.010;2023-04-01T16:03:33;10.87;;;4.67;;
5279;SDS011;2663;53.588;10.010;2023-04-01T16:08:34;9.27;;;5.70;;
5279;SDS011;2663;53.588;10.010;2023-04-01T16:11:24;7.47;;;4.10;;
5279;SDS011;2663;53.588;10.010;2023-04-01T16:17:14;18.43;;;4.90;;
5279;SDS011;2663;53.588;10.010;2023-04-01T16:20:13;10.40;;;4.33;;
5279;SDS011;2663;53.588;10.010;2023-04-01T16:25:39;9.43;;;4.17;;
5279;SDS011;2663;53.588;10.010;2023-04-01T16:28:13;4.77;;;3.20;;
5279;SDS011;2663;53.588;10.010;2023-04-01T16:30:48;11.23;;;4.40;;
5279;SDS011;2663;53.588;10.010;2023-04-01T16:33:39;6.37;;;4.40;;
5279;SDS011;2663;53.588;10.010;2023-04-01T16:36:22;8.00;;;4.33;;
5279;SDS011;2663;53.588;10.010;2023-04-01T16:39:08;9.07;;;5.47;;
5279;SDS011;2663;53.588;10.010;2023-04-01T16:41:54;8.80;;;4.27;;
5279;SDS011;2663;53.588;10.010;2023-04-01T16:44:50;9.20;;;4.43;;
5279;SDS011;2663;53.588;10.010;2023-04-01T16:47:32;10.27;;;3.73;;
5279;SDS011;2663;53.588;10.010;2023-04-01T16:52:48;6.07;;;4.20;;
5279;SDS011;2663;53.588;10.010;2023-04-01T16:58:32;11.13;;;4.20;;
5279;SDS011;2663;53.588;10.010;2023-04-01T17:01:20;8.00;;;4.07;;
5279;SDS011;2663;53.588;10.010;2023-04-01T17:04:01;15.37;;;5.00;;
5279;SDS011;2663;53.588;10.010;2023-04-01T17:12:24;9.20;;;5.17;;
5279;SDS011;2663;53.588;10.010;2023-04-01T17:20:43;10.73;;;3.77;;
5279;SDS011;2663;53.588;10.010;2023-04-01T17:23:45;7.77;;;3.87;;
5279;SDS011;2663;53.588;10.010;2023-04-01T17:26:24;9.13;;;3.50;;
5279;SDS011;2663;53.588;10.010;2023-04-01T17:34:57;7.33;;;3.10;;
5279;SDS011;2663;53.588;10.010;2023-04-01T17:37:44;4.70;;;2.23;;
5279;SDS011;2663;53.588;10.010;2023-04-01T17:48:18;3.50;;;3.20;;
5279;SDS011;2663;53.588;10.010;2023-04-01T17:51:10;3.90;;;2.63;;
5279;SDS011;2663;53.588;10.010;2023-04-01T17:56:59;7.73;;;3.03;;
5279;SDS011;2663;53.588;10.010;2023-04-01T17:59:37;6.67;;;2.97;;
5279;SDS011;2663;53.588;10.010;2023-04-01T18:07:32;3.40;;;2.77;;
5279;SDS011;2663;53.588;10.010;2023-04-01T18:19:01;4.57;;;2.67;;
5279;SDS011;2663;53.588;10.010;2023-04-01T18:24:30;5.17;;;2.77;;
5279;SDS011;2663;53.588;10.010;2023-04-01T18:27:32;2.93;;;2.60;;
5279;SDS011;2663;53.588;10.010;2023-04-01T18:30:11;3.43;;;2.60;;
5279;SDS011;2663;53.588;10.010;2023-04-01T18:35:27;7.17;;;2.30;;
5279;SDS011;2663;53.588;10.010;2023-04-01T18:37:59;5.30;;;2.70;;
5279;SDS011;2663;53.588;10.010;2023-04-01T18:40:36;4.93;;;2.60;;
5279;SDS011;2663;53.588;10.010;2023-04-01T18:46:07;4.57;;;2.90;;
5279;SDS011;2663;53.588;10.010;2023-04-01T18:48:51;6.13;;;3.63;;
5279;SDS011;2663;53.588;10.010;2023-04-01T18:54:06;5.90;;;2.40;;
5279;SDS011;2663;53.588;10.010;2023-04-01T18:56:48;4.37;;;2.50;;
5279;SDS011;2663;53.588;10.010;2023-04-01T18:59:17;2.93;;;2.53;;
5279;SDS011;2663;53.588;10.010;2023-04-01T19:02:14;4.00;;;2.30;;
5279;SDS011;2663;53.588;10.010;2023-04-01T19:07:39;3.77;;;3.00;;
5279;SDS011;2663;53.588;10.010;2023-04-01T19:10:14;3.90;;;2.30;;
5279;SDS011;2663;53.588;10.010;2023-04-01T19:13:37;7.90;;;3.13;;
5279;SDS011;2663;53.588;10.010;2023-04-01T19:18:43;4.50;;;2.93;;
5279;SDS011;2663;53.588;10.010;2023-04-01T19:21:42;4.00;;;2.70;;
5279;SDS011;2663;53.588;10.010;2023-04-01T19:27:29;4.60;;;3.00;;
5279;SDS011;2663;53.588;10.010;2023-04-01T19:30:54;8.73;;;2.70;;
5279;SDS011;2663;53.588;10.010;2023-04-01T19:38:38;3.67;;;2.90;;
5279;SDS011;2663;53.588;10.010;2023-04-01T19:46:36;6.70;;;2.80;;
5279;SDS011;2663;53.588;10.010;2023-04-01T19:49:14;13.07;;;2.80;;
5279;SDS011;2663;53.588;10.010;2023-04-01T19:51:59;3.03;;;2.37;;
5279;SDS011;2663;53.588;10.010;2023-04-01T19:54:53;10.93;;;2.97;;
5279;SDS011;2663;53.588;10.010;2023-04-01T19:57:49;5.67;;;2.10;;
5279;SDS011;2663;53.588;10.010;2023-04-01T20:00:55;3.23;;;2.17;;
5279;SDS011;2663;53.588;10.010;2023-04-01T20:06:35;6.00;;;2.20;;
5279;SDS011;2663;53.588;10.010;2023-04-01T20:09:34;8.97;;;4.03;;
5279;SDS011;2663;53.588;10.010;2023-04-01T20:12:24;7.53;;;3.40;;
5279;SDS011;2663;53.588;10.010;2023-04-01T20:14:56;9.93;;;2.80;;
5279;SDS011;2663;53.588;10.010;2023-04-01T20:25:17;6.30;;;2.83;;
5279;SDS011;2663;53.588;10.010;2023-04-01T20:27:57;4.77;;;2.93;;
5279;SDS011;2663;53.588;10.010;2023-04-01T20:49:49;9.03;;;2.10;;
5279;SDS011;2663;53.588;10.010;2023-04-01T20:52:24;3.53;;;2.33;;
5279;SDS011;2663;53.588;10.010;2023-04-01T20:55:13;3.73;;;2.20;;
5279;SDS011;2663;53.588;10.010;2023-04-01T21:17:50;6.50;;;2.47;;
5279;SDS011;2663;53.588;10.010;2023-04-01T21:31:35;3.17;;;1.90;;
5279;SDS011;2663;53.588;10.010;2023-04-01T21:37:07;3.17;;;1.87;;
5279;SDS011;2663;53.588;10.010;2023-04-01T21:39:58;7.87;;;3.07;;
5279;SDS011;2663;53.588;10.010;2023-04-01T21:42:37;5.10;;;2.90;;
5279;SDS011;2663;53.588;10.010;2023-04-01T21:48:04;5.37;;;2.60;;
5279;SDS011;2663;53.588;10.010;2023-04-01T21:53:56;5.30;;;3.00;;
5279;SDS011;2663;53.588;10.010;2023-04-01T21:56:49;7.33;;;2.50;;
5279;SDS011;2663;53.588;10.010;2023-04-01T22:00:13;6.47;;;2.47;;
5279;SDS011;2663;53.588;10.010;2023-04-01T22:05:31;2.40;;;1.80;;
5279;SDS011;2663;53.588;10.010;2023-04-01T22:11:05;4.77;;;1.80;;
5279;SDS011;2663;53.588;10.010;2023-04-01T22:16:20;3.93;;;1.60;;
5279;SDS011;2663;53.588;10.010;2023-04-01T22:22:45;2.10;;;1.27;;
5279;SDS011;2663;53.588;10.010;2023-04-01T22:28:03;4.63;;;1.50;;
5279;SDS011;2663;53.588;10.010;2023-04-01T22:30:36;5.87;;;1.80;;
5279;SDS011;2663;53.588;10.010;2023-04-01T22:33:29;1.13;;;0.93;;
5279;SDS011;2663;53.588;10.010;2023-04-01T22:36:11;4.17;;;1.33;;
5279;SDS011;2663;53.588;10.010;2023-04-01T22:38:54;8.53;;;1.57;;
5279;SDS011;2663;53.588;10.010;2023-04-01T22:45:22;4.77;;;1.67;;
5279;SDS011;2663;53.588;10.010;2023-04-01T22:50:04;6.17;;;2.17;;
5279;SDS011;2663;53.588;10.010;2023-04-01T22:52:42;5.77;;;1.17;;
5279;SDS011;2663;53.588;10.010;2023-04-01T22:55:17;2.20;;;1.70;;
5279;SDS011;2663;53.588;10.010;2023-04-01T22:57:57;8.37;;;2.10;;
5279;SDS011;2663;53.588;10.010;2023-04-01T23:05:52;3.97;;;1.53;;
5279;SDS011;2663;53.588;10.010;2023-04-01T23:11:08;2.33;;;1.10;;
5279;SDS011;2663;53.588;10.010;2023-04-01T23:13:39;3.70;;;1.03;;
5279;SDS011;2663;53.588;10.010;2023-04-01T23:16:14;5.03;;;1.30;;
5279;SDS011;2663;53.588;10.010;2023-04-01T23:18:53;10.43;;;2.03;;
5279;SDS011;2663;53.588;10.010;2023-04-01T23:24:22;5.47;;;1.93;;
5279;SDS011;2663;53.588;10.010;2023-04-01T23:27:03;2.87;;;1.50;;
5279;SDS011;2663;53.588;10.010;2023-04-01T23:29:36;5.17;;;2.03;;
5279;SDS011;2663;53.588;10.010;2023-04-01T23:32:13;7.90;;;1.50;;
5279;SDS011;2663;53.588;10.010;2023-04-01T23:34:51;2.63;;;1.30;;
5279;SDS011;2663;53.588;10.010;2023-04-01T23:37:21;5.50;;;1.20;;
5279;SDS011;2663;53.588;10.010;2023-04-01T23:39:49;2.37;;;0.93;;
5279;SDS011;2663;53.588;10.010;2023-04-01T23:42:30;2.20;;;0.80;;
5279;SDS011;2663;53.588;10.010;2023-04-01T23:45:03;9.33;;;0.97;;
5279;SDS011;2663;53.588;10.010;2023-04-01T23:47:38;1.43;;;0.73;;
5279;SDS011;2663;53.588;10.010;2023-04-01T23:50:10;5.73;;;1.30;;
5279;SDS011;2663;53.588;10.010;2023-04-01T23:52:43;7.00;;;2.03;;
5279;SDS011;2663;53.588;10.010;2023-04-01T23:55:25;3.27;;;1.00;;
